.
WxDataArchive / Data Records for 2009-06-19
2009-06-18 June 2009 2009-06-20

Data Records for Friday, 19 June 2009

Time	Temp	Chill	HIndex	Humid	Dewpt	 Wind 	HiWind	WindDir	Rain 	Barom 
-----	----	-----	------	-----	-----	------	------	-------	-----	----- 
00:00	70.8	70.8	70.8	80	64.3	0	0	---	0.00	29.828 
00:05	70.6	70.6	70.6	80	64.1	0	0	---	0.00	29.828 
00:10	70.6	70.6	70.6	80	64.1	0	0	---	0.00	29.828 
00:15	70.4	70.4	70.4	80	63.9	0	0	---	0.00	29.825 
00:20	70.3	70.3	70.3	81	64.2	0	0	---	0.00	29.825 
00:25	70.1	70.1	70.1	81	64.0	0	0	---	0.00	29.825 
00:30	69.9	69.9	69.9	82	64.1	0	0	---	0.00	29.819 
00:35	69.8	69.8	69.8	82	64.0	0	0	---	0.00	29.819 
00:40	69.9	69.9	69.9	81	63.8	0	0	---	0.00	29.819 
00:45	70.3	70.3	70.3	81	64.2	0	0	---	0.00	29.808 
00:50	70.4	70.4	70.4	80	63.9	0	0	---	0.00	29.808 
00:55	70.6	70.6	70.6	80	64.1	0	0	---	0.00	29.808 
01:00	70.9	70.9	70.9	79	64.1	0	0	---	0.00	29.804 
01:05	70.9	70.9	70.9	79	64.1	0	0	---	0.00	29.804 
01:10	71.1	71.1	71.1	79	64.2	0	0	---	0.00	29.804 
01:15	71.3	71.3	71.3	79	64.4	0	0	---	0.00	29.792 
01:20	71.3	71.3	71.3	78	64.1	0	0	---	0.00	29.792 
01:25	71.3	71.3	71.3	78	64.1	0	0	---	0.00	29.792 
01:30	71.3	71.3	71.3	78	64.1	0	0	---	0.00	29.779 
01:35	71.3	71.3	71.3	79	64.4	0	0	---	0.00	29.779 
01:40	71.3	71.3	71.3	79	64.4	0	0	---	0.00	29.779 
01:45	71.3	71.3	71.3	79	64.4	0	0	---	0.00	29.776 
01:50	71.3	71.3	71.3	79	64.4	0	0	---	0.00	29.776 
01:55	71.3	71.3	71.3	79	64.4	0	0	---	0.00	29.776 
02:00	71.3	71.3	71.3	79	64.4	0	0	---	0.00	29.779 
02:05	71.5	71.5	71.5	79	64.6	0	0	---	0.00	29.779 
02:10	71.5	71.5	71.5	80	65.0	0	0	---	0.00	29.779 
02:15	71.5	71.5	71.5	80	65.0	0	0	---	0.00	29.773 
02:20	71.5	71.5	71.5	80	65.0	0	0	---	0.00	29.773 
02:25	71.3	71.3	71.3	80	64.8	0	0	---	0.00	29.773 
02:30	71.3	71.3	71.3	81	65.2	0	0	---	0.00	29.769 
02:35	71.3	71.3	71.3	81	65.2	0	0	---	0.00	29.769 
02:40	71.1	71.1	71.1	81	65.0	0	0	---	0.00	29.769 
02:45	71.1	71.1	71.1	82	65.3	0	0	---	0.00	29.760 
02:50	71.1	71.1	71.1	82	65.3	0	0	---	0.00	29.760 
02:55	71.1	71.1	71.1	82	65.3	0	0	---	0.00	29.760 
03:00	71.1	71.1	71.1	82	65.3	0	0	---	0.00	29.764 
03:05	71.1	71.1	71.1	82	65.3	0	0	---	0.00	29.764 
03:10	71.1	71.1	71.1	83	65.7	0	0	---	0.00	29.764 
03:15	71.1	71.1	71.1	83	65.7	0	0	---	0.00	29.754 
03:20	70.9	70.9	70.9	83	65.5	0	0	---	0.00	29.754 
03:25	70.9	70.9	70.9	83	65.5	0	1	112	0.00	29.754 
03:30	70.9	70.9	70.9	84	65.8	0	1	112	0.00	29.746 
03:35	70.9	70.9	70.9	84	65.8	0	1	112	0.00	29.746 
03:40	70.9	70.9	70.9	84	65.8	0	1	112	0.00	29.746 
03:45	70.9	70.9	70.9	84	65.8	0	1	112	0.00	29.728 
03:50	70.9	70.9	70.9	85	66.2	0	1	112	0.00	29.728 
03:55	70.9	70.9	70.9	85	66.2	0	0	---	0.00	29.728 
04:00	71.1	71.1	71.1	86	66.7	0	1	112	0.00	29.721 
04:05	71.3	71.3	71.3	87	67.2	0	2	112	0.02	29.721 
04:10	71.1	71.1	71.1	88	67.4	0	3	90	0.16	29.721 
04:15	70.8	70.8	70.8	90	67.7	0	2	90	0.00	29.715 
04:20	70.9	70.9	70.9	92	68.5	1	5	90	0.06	29.715 
04:25	71.3	71.3	71.3	93	69.2	1	3	112	0.01	29.715 
04:30	71.5	71.5	71.5	93	69.4	1	3	112	0.00	29.692 
04:35	71.6	71.6	71.6	93	69.5	1	4	135	0.00	29.692 
04:40	71.6	71.6	71.6	93	69.5	1	5	158	0.00	29.692 
04:45	71.6	71.6	71.6	93	69.5	0	2	158	0.00	29.699 
04:50	71.6	71.6	71.6	93	69.5	0	2	158	0.00	29.699 
04:55	71.5	71.5	71.5	93	69.4	0	2	135	0.00	29.699 
05:00	71.5	71.5	71.5	93	69.4	0	3	112	0.00	29.703 
05:05	71.5	71.5	71.5	94	69.7	0	1	112	0.00	29.703 
05:10	71.8	71.8	71.8	94	70.0	0	3	68	0.00	29.703 
05:15	72.0	72.0	72.0	94	70.2	0	2	248	0.00	29.711 
05:20	72.1	72.1	72.1	94	70.3	0	3	90	0.00	29.711 
05:25	72.1	72.1	72.1	94	70.3	0	1	90	0.00	29.711 
05:30	72.3	72.3	72.3	94	70.5	0	2	68	0.00	29.717 
05:35	72.5	72.5	72.5	94	70.7	0	2	68	0.00	29.717 
05:40	72.5	72.5	72.5	94	70.7	0	2	68	0.00	29.717 
05:45	72.7	72.7	72.7	94	70.9	0	2	68	0.00	29.719 
05:50	72.8	72.8	72.8	94	71.0	0	2	68	0.00	29.719 
05:55	72.8	72.8	72.8	94	71.0	0	2	68	0.00	29.719 
06:00	72.8	72.8	72.8	94	71.0	1	4	68	0.00	29.776 
06:05	70.6	70.6	70.6	92	68.2	2	7	292	0.00	29.776 
06:10	69.4	69.4	69.4	92	67.0	3	7	292	0.06	29.776 
06:15	68.6	68.6	68.6	92	66.2	1	5	270	0.16	29.767 
06:20	68.1	68.1	68.1	93	66.0	1	4	292	0.01	29.767 
06:25	67.9	67.9	67.9	93	65.8	0	1	270	0.00	29.767 
06:30	67.8	67.8	67.8	94	66.0	0	1	270	0.00	29.793 
06:35	67.8	67.8	67.8	94	66.0	0	2	270	0.00	29.793 
06:40	67.6	67.6	67.6	94	65.8	0	1	270	0.00	29.793 
06:45	67.6	67.6	67.6	94	65.8	0	0	---	0.00	29.806 
06:50	67.8	67.8	67.8	94	66.0	0	1	270	0.00	29.806 
06:55	67.8	67.8	67.8	94	66.0	0	1	270	0.00	29.806 
07:00	67.6	67.6	67.6	94	65.8	0	1	270	0.00	29.822 
07:05	67.6	67.6	67.6	95	66.1	0	2	270	0.00	29.822 
07:10	67.6	67.6	67.6	95	66.1	0	2	270	0.00	29.822 
07:15	67.6	67.6	67.6	95	66.1	0	2	270	0.00	29.842 
07:20	67.6	67.6	67.6	95	66.1	0	2	180	0.00	29.842 
07:25	67.6	67.6	67.6	95	66.1	0	4	135	0.00	29.842 
07:30	67.6	67.6	67.6	95	66.1	2	7	68	0.00	29.829 
07:35	67.6	67.6	67.6	95	66.1	1	8	68	0.00	29.829 
07:40	67.4	67.4	67.4	95	65.9	1	9	90	0.00	29.829 
07:45	67.3	67.3	67.3	95	65.8	1	5	112	0.00	29.821 
07:50	67.3	67.3	67.3	95	65.8	2	7	112	0.00	29.821 
07:55	67.1	67.1	67.1	95	65.6	2	11	68	0.00	29.821 
08:00	67.1	67.1	67.1	95	65.6	1	4	90	0.00	29.823 
08:05	66.9	66.9	66.9	94	65.1	3	7	90	0.00	29.823 
08:10	66.8	66.8	66.8	94	65.0	4	10	90	0.00	29.823 
08:15	66.8	66.8	66.8	94	65.0	3	6	112	0.00	29.841 
08:20	66.6	66.6	66.6	94	64.8	2	6	112	0.00	29.841 
08:25	66.6	66.6	66.6	94	64.8	3	10	90	0.00	29.841 
08:30	66.4	66.4	66.4	94	64.6	3	8	90	0.00	29.839 
08:35	66.6	66.6	66.6	94	64.8	3	8	135	0.00	29.839 
08:40	66.4	66.4	66.4	94	64.6	3	6	112	0.00	29.839 
08:45	66.4	66.4	66.4	93	64.3	3	10	112	0.00	29.838 
08:50	66.3	66.3	66.3	93	64.2	2	6	68	0.00	29.838 
08:55	66.3	66.3	66.3	94	64.5	1	3	68	0.00	29.838 
09:00	66.3	66.3	66.3	94	64.5	2	6	90	0.00	29.826 
09:05	66.4	66.4	66.4	94	64.6	2	6	90	0.00	29.826 
09:10	66.4	66.4	66.4	94	64.6	2	5	112	0.00	29.826 
09:15	66.6	66.6	66.6	93	64.5	2	5	90	0.00	29.827 
09:20	66.6	66.6	66.6	93	64.5	2	6	90	0.00	29.827 
09:25	66.6	66.6	66.6	93	64.5	2	7	68	0.00	29.827 
09:30	66.8	66.8	66.8	93	64.7	1	5	112	0.00	29.826 
09:35	66.8	66.8	66.8	93	64.7	1	3	112	0.00	29.826 
09:40	66.9	66.9	66.9	93	64.8	1	2	112	0.00	29.826 
09:45	67.1	67.1	67.1	93	65.0	1	3	112	0.00	29.827 
09:50	67.3	67.3	67.3	93	65.2	0	2	112	0.00	29.827 
09:55	67.4	67.4	67.4	93	65.3	0	1	112	0.00	29.827 
10:00	67.4	67.4	67.4	93	65.3	0	2	202	0.00	29.838 
10:05	67.6	67.6	67.6	93	65.5	1	2	202	0.00	29.838 
10:10	67.8	67.8	67.8	93	65.7	1	3	112	0.00	29.838 
10:15	67.9	67.9	67.9	93	65.8	1	5	112	0.00	29.806 
10:20	68.3	68.3	68.3	93	66.2	1	4	112	0.00	29.806 
10:25	68.6	68.6	68.6	93	66.5	1	4	135	0.00	29.806 
10:30	68.8	68.8	68.8	92	66.4	2	5	90	0.00	29.785 
10:35	69.1	69.1	69.1	91	66.4	3	7	90	0.00	29.785 
10:40	69.4	69.4	69.4	90	66.3	3	9	90	0.00	29.785 
10:45	69.9	69.9	69.9	89	66.5	2	7	112	0.00	29.778 
10:50	70.4	70.4	70.4	88	66.7	2	6	90	0.00	29.778 
10:55	71.1	71.1	71.1	86	66.7	3	11	68	0.00	29.778 
11:00	72.3	72.3	72.3	86	67.9	1	5	90	0.00	29.775 
11:05	73.2	73.2	73.2	84	68.1	2	6	90	0.00	29.775 
11:10	74.0	74.0	74.0	82	68.1	2	6	112	0.00	29.775 
11:15	75.1	75.1	75.6	81	68.9	2	5	90	0.00	29.774 
11:20	75.8	75.8	76.8	79	68.8	2	5	112	0.00	29.774 
11:25	76.3	76.3	77.5	79	69.3	2	3	68	0.00	29.774 
11:30	76.7	76.7	78.2	77	68.9	3	10	90	0.00	29.763 
11:35	76.8	76.8	78.4	77	69.0	2	7	90	0.00	29.763 
11:40	77.4	77.4	79.3	77	69.6	3	9	90	0.00	29.763 
11:45	77.9	77.9	80.1	78	70.5	2	8	90	0.00	29.758 
11:50	78.5	78.5	81.1	77	70.7	2	4	315	0.00	29.758 
11:55	79.0	79.0	82.0	78	71.5	2	6	248	0.00	29.758 
12:00	79.4	79.4	82.3	73	70.0	2	5	315	0.00	29.754 
12:05	79.6	79.6	82.6	73	70.2	2	6	270	0.00	29.754 
12:10	78.8	78.8	81.4	74	69.8	2	6	270	0.00	29.754 
12:15	78.8	78.8	81.6	77	71.0	1	3	315	0.00	29.754 
12:20	78.8	78.8	81.6	77	71.0	1	3	90	0.00	29.754 
12:25	78.6	78.6	81.2	77	70.8	2	6	292	0.00	29.754 
12:30	78.5	78.5	81.1	77	70.7	2	5	292	0.00	29.755 
12:35	78.6	78.6	81.3	78	71.1	2	9	225	0.00	29.755 
12:40	79.0	79.0	82.0	77	71.2	3	7	270	0.00	29.755 
12:45	79.4	79.4	82.6	76	71.2	2	7	270	0.00	29.749 
12:50	79.8	79.8	83.2	75	71.1	3	7	270	0.00	29.749 
12:55	80.3	80.3	84.0	74	71.2	3	6	270	0.00	29.749 
13:00	80.7	80.7	84.7	74	71.6	2	7	292	0.00	29.745 
13:05	81.2	81.2	85.7	74	72.1	1	5	270	0.00	29.745 
13:10	82.0	82.0	86.0	68	70.4	3	6	270	0.00	29.745 
13:15	82.6	82.6	86.9	67	70.5	2	5	270	0.00	29.745 
13:20	83.2	83.2	88.2	68	71.5	2	6	270	0.00	29.745 
13:25	83.4	83.4	87.6	64	69.9	2	6	270	0.00	29.745 
13:30	83.8	83.8	87.7	62	69.4	3	7	270	0.00	29.739 
13:35	84.0	84.0	88.1	62	69.5	3	7	270	0.00	29.739 
13:40	84.3	84.3	88.0	60	68.9	3	7	270	0.00	29.739 
13:45	84.5	84.5	88.1	59	68.6	2	9	270	0.00	29.735 
13:50	84.7	84.7	88.7	60	69.2	2	5	270	0.00	29.735 
13:55	85.1	85.1	89.4	60	69.6	1	5	338	0.00	29.735 
14:00	85.5	85.5	89.8	59	69.5	1	3	45	0.00	29.731 
14:05	85.7	85.7	88.9	55	67.6	2	5	315	0.00	29.731 
14:10	85.9	85.9	88.9	54	67.3	2	7	248	0.00	29.731 
14:15	85.7	85.7	88.6	54	67.1	2	7	248	0.00	29.733 
14:20	85.7	85.7	88.6	54	67.1	2	7	270	0.00	29.733 
14:25	85.5	85.5	88.3	54	66.9	2	6	270	0.00	29.733 
14:30	85.7	85.7	88.6	54	67.1	2	6	270	0.00	29.738 
14:35	85.7	85.7	88.6	54	67.1	2	7	248	0.00	29.738 
14:40	85.7	85.7	88.6	54	67.1	2	6	270	0.00	29.738 
14:45	85.9	85.9	88.9	54	67.3	2	4	270	0.00	29.742 
14:50	86.1	86.1	88.9	53	66.9	2	5	270	0.00	29.742 
14:55	86.3	86.3	89.6	54	67.7	2	7	248	0.00	29.742 
15:00	86.3	86.3	89.9	55	68.2	2	6	248	0.00	29.754 
15:05	86.3	86.3	90.2	56	68.7	2	4	292	0.00	29.754 
15:10	86.3	86.3	89.9	55	68.2	2	4	270	0.00	29.754 
15:15	86.1	86.1	89.6	55	68.0	2	4	270	0.00	29.767 
15:20	85.9	85.9	89.6	56	68.3	2	5	270	0.00	29.767 
15:25	85.5	85.5	89.2	57	68.5	1	3	315	0.00	29.767 
15:30	84.9	84.9	89.1	60	69.4	1	4	315	0.00	29.783 
15:35	82.4	82.4	85.8	64	69.0	1	4	315	0.00	29.783 
15:40	80.5	80.5	83.3	67	68.5	1	5	45	0.00	29.783 
15:45	79.6	79.6	82.3	70	68.9	0	1	45	0.00	29.786 
15:50	78.8	78.8	81.1	70	68.2	1	3	270	0.00	29.786 
15:55	78.3	78.3	80.3	68	66.8	2	5	292	0.00	29.786 
16:00	78.1	78.1	80.1	68	66.7	1	4	292	0.00	29.787 
16:05	78.1	78.1	80.1	68	66.7	1	6	338	0.00	29.787 
16:10	78.1	78.1	80.0	67	66.2	0	3	68	0.00	29.787 
16:15	78.3	78.3	80.3	67	66.4	0	2	68	0.00	29.769 
16:20	78.5	78.5	80.5	66	66.2	0	2	45	0.00	29.769 
16:25	79.0	79.0	81.1	66	66.6	1	2	45	0.00	29.769 
16:30	79.9	79.9	82.2	65	67.1	1	5	112	0.00	29.753 
16:35	80.7	80.7	83.4	65	67.8	1	3	112	0.00	29.753 
16:40	81.1	81.1	83.2	60	65.9	0	1	112	0.00	29.753 
16:45	81.6	81.6	83.9	60	66.3	0	2	112	0.00	29.734 
16:50	82.2	82.2	84.7	60	66.9	0	3	112	0.00	29.734 
16:55	82.4	82.4	84.8	59	66.6	0	1	112	0.00	29.734 
17:00	82.0	82.0	84.6	61	67.2	0	2	112	0.00	29.729 
17:05	81.6	81.6	84.2	62	67.3	0	1	112	0.00	29.729 
17:10	81.4	81.4	84.1	63	67.6	0	1	112	0.00	29.729 
17:15	81.1	81.1	83.5	62	66.8	0	1	112	0.00	29.715 
17:20	80.9	80.9	83.5	64	67.6	0	2	112	0.00	29.715 
17:25	80.5	80.5	82.9	64	67.2	0	1	112	0.00	29.715 
17:30	80.1	80.1	82.4	64	66.8	0	1	112	0.00	29.706 
17:35	79.9	79.9	82.2	65	67.1	0	1	112	0.00	29.706 
17:40	79.8	79.8	82.2	66	67.4	0	0	---	0.00	29.706 
17:45	79.8	79.8	82.3	67	67.8	0	1	112	0.00	29.694 
17:50	79.8	79.8	82.5	69	68.7	0	1	112	0.00	29.694 
17:55	79.6	79.6	82.0	67	67.7	0	1	112	0.00	29.694 
18:00	79.6	79.6	82.0	67	67.7	1	3	112	0.00	29.677 
18:05	79.4	79.4	81.8	68	67.9	0	1	112	0.00	29.677 
18:10	79.4	79.4	81.9	69	68.3	0	1	112	0.00	29.677 
18:15	79.4	79.4	81.9	69	68.3	0	1	112	0.00	29.681 
18:20	79.6	79.6	82.3	70	68.9	0	1	112	0.00	29.681 
18:25	79.6	79.6	82.2	69	68.5	0	2	112	0.00	29.681 
18:30	79.6	79.6	82.3	70	68.9	0	2	112	0.00	29.672 
18:35	79.4	79.4	81.9	69	68.3	0	1	112	0.00	29.672 
18:40	79.4	79.4	82.0	70	68.7	0	1	112	0.00	29.672 
18:45	79.2	79.2	81.7	70	68.5	0	1	112	0.00	29.680 
18:50	79.2	79.2	81.7	70	68.5	0	1	112	0.00	29.680 
18:55	79.0	79.0	81.4	70	68.4	0	1	112	0.00	29.680 
19:00	78.8	78.8	81.1	70	68.2	0	1	112	0.00	29.676 
19:05	78.8	78.8	81.1	70	68.2	0	1	112	0.00	29.676 
19:10	78.8	78.8	81.1	70	68.2	0	2	112	0.00	29.676 
19:15	78.8	78.8	81.1	69	67.7	0	2	112	0.00	29.681 
19:20	78.8	78.8	81.2	71	68.6	0	1	112	0.00	29.681 
19:25	78.8	78.8	81.1	70	68.2	0	1	112	0.00	29.681 
19:30	78.8	78.8	81.2	71	68.6	0	1	112	0.00	29.695 
19:35	78.8	78.8	81.2	71	68.6	0	0	---	0.00	29.695 
19:40	78.8	78.8	81.2	71	68.6	0	1	112	0.00	29.695 
19:45	78.8	78.8	81.1	70	68.2	0	0	---	0.00	29.684 
19:50	78.6	78.6	80.8	70	68.0	0	1	112	0.00	29.684 
19:55	78.6	78.6	80.8	70	68.0	0	1	112	0.00	29.684 
20:00	78.6	78.6	80.9	71	68.4	0	1	112	0.00	29.678 
20:05	78.5	78.5	80.8	72	68.7	0	1	112	0.00	29.678 
20:10	78.1	78.1	80.2	72	68.3	0	1	112	0.00	29.678 
20:15	77.9	77.9	80.0	73	68.5	0	2	112	0.00	29.677 
20:20	77.7	77.7	79.7	73	68.3	1	2	112	0.00	29.677 
20:25	77.7	77.7	79.7	73	68.3	0	2	112	0.00	29.677 
20:30	77.6	77.6	79.5	73	68.2	0	0	---	0.00	29.682 
20:35	77.6	77.6	79.6	74	68.6	0	0	---	0.00	29.682 
20:40	77.4	77.4	79.3	75	68.8	0	1	112	0.00	29.682 
20:45	77.2	77.2	79.0	75	68.6	0	0	---	0.00	29.682 
20:50	77.2	77.2	79.0	76	69.0	0	0	---	0.00	29.682 
20:55	77.0	77.0	78.7	76	68.8	0	1	112	0.00	29.682 
21:00	77.0	77.0	78.7	76	68.8	0	1	112	0.00	29.669 
21:05	76.8	76.8	78.4	76	68.6	0	0	---	0.00	29.669 
21:10	76.8	76.8	78.4	77	69.0	0	0	---	0.00	29.669 
21:15	76.7	76.7	78.2	77	68.9	0	1	112	0.00	29.678 
21:20	76.5	76.5	77.9	77	68.7	0	0	---	0.00	29.678 
21:25	76.3	76.3	77.6	78	68.9	0	0	---	0.00	29.678 
21:30	76.3	76.3	77.6	78	68.9	0	1	112	0.00	29.690 
21:35	76.3	76.3	77.6	77	68.5	0	1	112	0.00	29.690 
21:40	76.3	76.3	77.6	77	68.5	0	0	---	0.00	29.690 
21:45	76.3	76.3	77.6	78	68.9	0	1	112	0.00	29.699 
21:50	76.3	76.3	77.6	78	68.9	0	0	---	0.00	29.699 
21:55	76.1	76.1	77.2	79	69.1	0	0	---	0.00	29.699 
22:00	76.1	76.1	77.2	79	69.1	0	0	---	0.00	29.715 
22:05	76.1	76.1	77.1	80	69.5	0	1	112	0.00	29.715 
22:10	76.0	76.0	76.8	82	70.1	0	1	112	0.00	29.715 
22:15	75.8	75.8	76.4	83	70.3	0	2	112	0.01	29.715 
22:20	75.8	75.8	76.3	84	70.6	0	1	112	0.00	29.715 
22:25	75.6	75.6	75.9	85	70.8	0	2	112	0.00	29.715 
22:30	75.8	75.8	76.0	87	71.6	0	2	180	0.01	29.709 
22:35	75.8	75.8	75.9	88	72.0	0	2	180	0.01	29.709 
22:40	76.0	76.0	76.3	88	72.2	1	4	270	0.00	29.709 
22:45	76.1	76.1	76.4	89	72.6	1	3	248	0.00	29.686 
22:50	76.3	76.3	76.8	88	72.5	1	3	270	0.00	29.686 
22:55	76.5	76.5	77.2	88	72.7	1	4	270	0.00	29.686 
23:00	76.5	76.5	77.2	88	72.7	2	6	248	0.00	29.702 
23:05	76.7	76.7	77.7	87	72.5	2	4	292	0.00	29.702 
23:10	76.5	76.5	77.6	83	70.9	3	7	270	0.00	29.702 
23:15	76.5	76.5	77.8	79	69.5	3	6	270	0.00	29.700 
23:20	76.7	76.7	78.2	78	69.3	3	5	292	0.00	29.700 
23:25	76.7	76.7	78.1	79	69.7	2	4	270	0.00	29.700 
23:30	76.7	76.7	78.1	80	70.0	2	4	270	0.00	29.696 
23:35	76.8	76.8	78.2	80	70.1	2	4	270	0.01	29.696 
23:40	76.7	76.7	78.0	82	70.8	1	4	270	0.00	29.696 
23:45	76.5	76.5	77.5	84	71.3	2	4	270	0.00	29.687 
23:50	76.3	76.3	77.2	84	71.1	1	4	270	0.00	29.687 
23:55	76.0	76.0	76.6	85	71.2	1	2	270	0.00	29.687 

CoCoRaHS
IN-AL-39
A2 Web Hosting
Creative Commons License
GoDaddy
search engine by freefind advanced

loaded 2018-11-15 18:38:18 • last modified 2010-11-18 10:43:29
Privacy PolicyDisclaimer
• wx.awcolley.com is powered by PmWiki v.2002016 •
• all content (unless otherwise noted) © 2018 A W Colley